Meredithville, Virginia
Current Conditions -  °F | °C
As of 3:15 PM on Saturday 25 Oct 2014 (Local Time) from KLVL Reporting Station
Clear Clear  
Wind Chill: 69°   Ceiling: Unl
Heat Index: 69°   Visibility: 10mi
Dew Point: 43°   Wind: 5mph
Humidity: 39%   Direction: 240°WSW
Pressure: 29.89"   Gusts: NA
Location:  36.81°N, 77.96°W
Report Text: KLVL 251915Z AUTO 24004KT 10SM CLR 20/06 A2989 RMK AO1 T02030060
Loading
Personal Weather Stations






























Interactive Weather Map
Tropical Storm Tracking
New forecast layout! Learn more

10-Day Weather Forecast

Advertisements
Track Severe Weather on mobile